createdAt,value
2023-05-04T00:01:47.641Z,2.60
2023-05-04T00:04:54.484Z,2.80
2023-05-04T00:07:57.297Z,2.10
2023-05-04T00:11:03.960Z,2.55
2023-05-04T00:14:07.030Z,2.57
2023-05-04T00:17:09.280Z,2.97
2023-05-04T00:20:11.944Z,2.67
2023-05-04T00:23:13.632Z,3.05
2023-05-04T00:26:17.550Z,2.70
2023-05-04T00:29:19.416Z,2.75
2023-05-04T00:32:24.705Z,2.85
2023-05-04T00:35:26.945Z,2.80
2023-05-04T00:38:30.813Z,2.40
2023-05-04T00:41:38.004Z,2.80
2023-05-04T00:44:41.573Z,3.50
2023-05-04T00:47:43.349Z,2.85
2023-05-04T00:50:45.220Z,2.65
2023-05-04T00:53:48.507Z,2.40
2023-05-04T00:56:50.513Z,2.53
2023-05-04T00:59:53.717Z,2.40
2023-05-04T01:02:55.553Z,2.90
2023-05-04T01:06:35.004Z,2.70
2023-05-04T01:09:42.589Z,2.83
2023-05-04T01:12:51.546Z,2.37
2023-05-04T01:15:53.499Z,2.58
2023-05-04T01:18:55.162Z,2.70
2023-05-04T01:21:58.578Z,2.33
2023-05-04T01:25:00.271Z,2.10
2023-05-04T01:28:18.333Z,2.28
2023-05-04T01:31:22.956Z,2.37
2023-05-04T01:34:24.728Z,1.98
2023-05-04T01:37:26.410Z,2.08
2023-05-04T01:40:28.112Z,2.40
2023-05-04T01:43:29.905Z,2.58
2023-05-04T01:46:31.763Z,2.92
2023-05-04T01:49:33.495Z,2.55
2023-05-04T01:52:35.274Z,2.50
2023-05-04T01:55:36.988Z,2.58
2023-05-04T01:58:38.645Z,2.65
2023-05-04T02:01:40.311Z,2.40
2023-05-04T02:04:42.089Z,2.42
2023-05-04T02:07:43.836Z,2.55
2023-05-04T02:10:45.533Z,2.55
2023-05-04T02:13:47.277Z,2.72
2023-05-04T02:16:48.999Z,2.33
2023-05-04T02:19:50.670Z,2.50
2023-05-04T02:22:52.307Z,2.45
2023-05-04T02:25:56.032Z,2.30
2023-05-04T02:28:57.821Z,2.97
2023-05-04T02:31:59.605Z,2.58
2023-05-04T02:35:01.641Z,2.87
2023-05-04T02:38:03.326Z,3.50
2023-05-04T02:41:05.028Z,2.60
2023-05-04T02:44:06.758Z,3.30
2023-05-04T02:47:08.579Z,2.90
2023-05-04T02:50:10.407Z,3.62
2023-05-04T02:53:12.248Z,3.85
2023-05-04T02:56:13.983Z,3.25
2023-05-04T02:59:15.718Z,2.92
2023-05-04T03:02:17.419Z,3.22
2023-05-04T03:05:19.233Z,3.08
2023-05-04T03:08:21.093Z,2.97
2023-05-04T03:11:22.775Z,3.25
2023-05-04T03:14:24.490Z,3.35
2023-05-04T03:17:26.226Z,3.15
2023-05-04T03:20:28.386Z,3.42
2023-05-04T03:23:30.044Z,3.30
2023-05-04T03:26:31.798Z,3.70
2023-05-04T03:29:33.510Z,4.30
2023-05-04T03:32:35.312Z,4.40
2023-05-04T03:35:37.097Z,6.05
2023-05-04T03:38:38.729Z,4.45
2023-05-04T03:41:40.505Z,4.07
2023-05-04T03:44:42.317Z,3.80
2023-05-04T03:47:44.293Z,3.95
2023-05-04T03:50:46.084Z,4.12
2023-05-04T03:53:47.756Z,3.67
2023-05-04T03:56:49.492Z,17.85
2023-05-04T03:59:51.194Z,5.57
2023-05-04T04:02:52.956Z,4.97
2023-05-04T04:05:54.673Z,4.20
2023-05-04T04:08:56.419Z,3.95
2023-05-04T04:11:58.143Z,3.33
2023-05-04T04:15:01.429Z,3.50
2023-05-04T04:18:03.252Z,3.55
2023-05-04T04:21:05.139Z,3.47
2023-05-04T04:24:06.934Z,3.42
2023-05-04T04:27:08.598Z,4.00
2023-05-04T04:30:10.991Z,3.67
2023-05-04T04:33:12.732Z,3.30
2023-05-04T04:36:16.915Z,4.10
2023-05-04T04:39:18.732Z,3.53
2023-05-04T04:42:20.443Z,3.97
2023-05-04T04:45:22.330Z,3.47
2023-05-04T04:48:25.842Z,3.85
2023-05-04T04:51:27.535Z,3.67
2023-05-04T04:54:29.234Z,3.60
2023-05-04T04:57:31.908Z,3.35
2023-05-04T05:00:33.928Z,3.50
2023-05-04T05:03:36.232Z,3.40
2023-05-04T05:06:38.484Z,3.80
2023-05-04T05:09:40.150Z,3.42
2023-05-04T05:12:41.972Z,3.47
2023-05-04T05:15:43.751Z,3.33
2023-05-04T05:18:45.371Z,3.75
2023-05-04T05:21:47.785Z,3.47
2023-05-04T05:24:49.439Z,3.40
2023-05-04T05:27:51.179Z,3.58
2023-05-04T05:30:53.025Z,4.03
2023-05-04T05:33:54.724Z,3.30
2023-05-04T05:36:56.389Z,3.12
2023-05-04T05:39:58.252Z,3.70
2023-05-04T05:42:59.960Z,3.50
2023-05-04T05:46:01.767Z,3.78
2023-05-04T05:49:05.997Z,3.80
2023-05-04T05:52:07.790Z,3.72
2023-05-04T05:55:09.966Z,4.07
2023-05-04T05:58:11.622Z,4.00
2023-05-04T06:01:13.457Z,4.03
2023-05-04T06:04:15.426Z,3.47
2023-05-04T06:07:18.633Z,3.53
2023-05-04T06:10:20.503Z,3.92
2023-05-04T06:13:22.214Z,3.92
2023-05-04T06:16:24.134Z,4.00
2023-05-04T06:19:27.497Z,3.60
2023-05-04T06:22:29.755Z,3.62
2023-05-04T06:25:31.464Z,4.12
2023-05-04T06:28:33.751Z,3.87
2023-05-04T06:31:35.773Z,3.50
2023-05-04T06:34:37.514Z,2.80
2023-05-04T06:37:39.136Z,3.28
2023-05-04T06:40:41.154Z,2.70
2023-05-04T06:43:43.193Z,2.20
2023-05-04T06:46:44.874Z,2.33
2023-05-04T06:49:46.632Z,2.50
2023-05-04T06:52:48.292Z,2.45
2023-05-04T06:55:49.993Z,2.30
2023-05-04T06:58:51.709Z,2.20
2023-05-04T07:01:53.455Z,2.80
2023-05-04T07:04:55.470Z,2.70
2023-05-04T07:07:58.989Z,2.60
2023-05-04T07:11:00.793Z,2.37
2023-05-04T07:14:02.506Z,2.12
2023-05-04T07:17:04.216Z,2.30
2023-05-04T07:20:06.958Z,2.10
2023-05-04T07:23:08.917Z,2.40
2023-05-04T07:26:11.620Z,2.33
2023-05-04T07:29:13.403Z,2.42
2023-05-04T07:32:15.224Z,2.40
2023-05-04T07:35:16.990Z,1.98
2023-05-04T07:38:18.713Z,1.90
2023-05-04T07:41:20.511Z,2.28
2023-05-04T07:44:22.253Z,1.58
2023-05-04T07:47:24.718Z,1.67
2023-05-04T07:50:26.523Z,1.80
2023-05-04T07:53:28.286Z,1.70
2023-05-04T07:56:30.014Z,1.98
2023-05-04T07:59:32.171Z,2.10
2023-05-04T08:02:33.924Z,2.08
2023-05-04T08:05:35.850Z,2.25
2023-05-04T08:08:37.820Z,1.52
2023-05-04T08:11:39.978Z,1.70
2023-05-04T08:14:41.877Z,1.55
2023-05-04T08:17:44.197Z,2.30
2023-05-04T08:20:45.936Z,1.50
2023-05-04T08:23:47.642Z,1.12
2023-05-04T08:26:59.803Z,1.40
2023-05-04T08:30:09.604Z,1.40
2023-05-04T08:33:11.426Z,1.70
2023-05-04T08:36:13.374Z,1.70
2023-05-04T08:39:15.490Z,1.70
2023-05-04T08:42:33.615Z,1.60
2023-05-04T08:45:39.624Z,2.00
2023-05-04T08:48:43.024Z,1.75
2023-05-04T08:51:46.174Z,1.67
2023-05-04T08:54:48.860Z,1.80
2023-05-04T08:57:51.257Z,1.20
2023-05-04T09:00:53.445Z,1.55
2023-05-04T09:03:56.574Z,1.30
2023-05-04T09:06:58.795Z,1.40
2023-05-04T09:10:00.895Z,1.55
2023-05-04T09:13:02.642Z,2.70
2023-05-04T09:16:04.709Z,1.30
2023-05-04T09:19:18.640Z,1.87
2023-05-04T09:22:20.533Z,1.40
2023-05-04T09:25:22.330Z,1.40
2023-05-04T09:28:43.603Z,1.50
2023-05-04T09:31:52.786Z,1.35
2023-05-04T09:34:54.741Z,1.60
2023-05-04T09:37:57.890Z,1.60
2023-05-04T09:40:59.550Z,1.70
2023-05-04T09:44:01.288Z,1.80
2023-05-04T09:47:02.972Z,1.58
2023-05-04T09:50:33.310Z,3.50
2023-05-04T09:53:37.498Z,1.62
2023-05-04T09:56:48.192Z,1.42
2023-05-04T09:59:51.289Z,1.80
2023-05-04T10:02:53.732Z,1.67
2023-05-04T10:05:55.879Z,1.70
2023-05-04T10:08:59.659Z,1.75
2023-05-04T10:12:05.239Z,1.55
2023-05-04T10:15:08.987Z,2.65
2023-05-04T10:18:30.904Z,1.50
2023-05-04T10:22:03.592Z,1.87
2023-05-04T10:25:29.624Z,1.80
2023-05-04T10:28:40.350Z,1.60
2023-05-04T10:31:43.998Z,2.00
2023-05-04T10:34:45.871Z,2.03
2023-05-04T10:37:55.046Z,1.92
2023-05-04T10:40:57.374Z,2.00
2023-05-04T10:44:06.297Z,1.52
2023-05-04T10:47:08.230Z,1.80
2023-05-04T10:50:13.544Z,1.83
2023-05-04T10:53:16.926Z,1.80
2023-05-04T10:56:23.086Z,1.70
2023-05-04T10:59:24.838Z,1.80
2023-05-04T11:02:28.783Z,1.98
2023-05-04T11:05:43.292Z,2.00
2023-05-04T11:08:51.767Z,1.75
2023-05-04T11:11:54.340Z,2.03
2023-05-04T11:15:09.826Z,1.92
2023-05-04T11:18:11.897Z,1.80
2023-05-04T11:21:26.477Z,1.85
2023-05-04T11:24:45.181Z,1.80
2023-05-04T11:27:49.100Z,2.05
2023-05-04T11:30:53.245Z,1.45
2023-05-04T11:33:56.002Z,1.73
2023-05-04T11:36:57.776Z,1.85
2023-05-04T11:39:59.603Z,2.25
2023-05-04T11:43:02.566Z,2.20
2023-05-04T11:46:06.087Z,2.28
2023-05-04T11:49:07.967Z,1.85
2023-05-04T11:52:10.287Z,2.45
2023-05-04T11:55:31.290Z,1.85
2023-05-04T11:58:33.082Z,2.10
2023-05-04T12:01:36.346Z,2.03
2023-05-04T12:04:38.026Z,2.20
2023-05-04T12:07:39.678Z,2.00
2023-05-04T12:10:41.383Z,2.00
2023-05-04T12:13:45.071Z,1.87
2023-05-04T12:16:57.886Z,1.90
2023-05-04T12:19:59.677Z,2.35
2023-05-04T12:23:08.525Z,1.87
2023-05-04T12:26:11.267Z,2.20
2023-05-04T12:29:13.009Z,1.98
2023-05-04T12:32:14.796Z,2.50
2023-05-04T12:35:17.032Z,2.80
2023-05-04T12:38:18.811Z,2.08
2023-05-04T12:41:20.609Z,1.90
2023-05-04T12:44:22.366Z,2.05
2023-05-04T12:47:24.801Z,1.85
2023-05-04T12:50:26.650Z,1.90
2023-05-04T12:53:30.147Z,2.35
2023-05-04T12:56:33.550Z,1.90
2023-05-04T12:59:35.236Z,1.92
2023-05-04T13:02:37.757Z,2.10
2023-05-04T13:05:39.666Z,1.65
2023-05-04T13:08:41.440Z,1.87
2023-05-04T13:11:43.701Z,1.98
2023-05-04T13:14:45.338Z,1.90
2023-05-04T13:17:47.161Z,2.08
2023-05-04T13:20:50.678Z,1.98
2023-05-04T13:23:53.446Z,2.17
2023-05-04T13:26:55.334Z,2.00
2023-05-04T13:29:58.557Z,2.00
2023-05-04T13:33:00.398Z,2.37
2023-05-04T13:36:03.183Z,2.10
2023-05-04T13:39:04.888Z,2.20
2023-05-04T13:42:07.044Z,1.92
2023-05-04T13:45:09.381Z,1.90
2023-05-04T13:48:11.331Z,2.50
2023-05-04T13:51:13.171Z,2.22
2023-05-04T13:54:14.976Z,2.53
2023-05-04T13:57:16.653Z,2.28
2023-05-04T14:00:18.621Z,2.10
2023-05-04T14:03:20.347Z,2.00
2023-05-04T14:06:22.549Z,2.00
2023-05-04T14:09:26.188Z,2.00
2023-05-04T14:12:28.878Z,1.87
2023-05-04T14:15:32.154Z,2.22
2023-05-04T14:18:33.919Z,1.90
2023-05-04T14:21:36.449Z,1.62
2023-05-04T14:24:38.202Z,1.90
2023-05-04T14:27:39.978Z,2.20
2023-05-04T14:30:41.716Z,2.40
2023-05-04T14:33:43.795Z,2.08
2023-05-04T14:36:45.457Z,2.17
2023-05-04T14:39:47.612Z,2.15
2023-05-04T14:42:49.247Z,2.12
2023-05-04T14:45:51.277Z,1.90
2023-05-04T14:48:53.152Z,2.00
2023-05-04T14:51:55.141Z,1.70
2023-05-04T14:54:56.803Z,2.03
2023-05-04T14:57:58.522Z,2.00
2023-05-04T15:01:00.468Z,2.40
2023-05-04T15:04:02.264Z,2.53
2023-05-04T15:07:05.534Z,2.15
2023-05-04T15:10:08.742Z,2.17
2023-05-04T15:13:12.435Z,2.35
2023-05-04T15:16:20.138Z,2.47
2023-05-04T15:19:22.025Z,2.30
2023-05-04T15:22:23.748Z,2.85
2023-05-04T15:25:27.401Z,2.33
2023-05-04T15:28:29.087Z,2.40
2023-05-04T15:31:30.842Z,2.37
2023-05-04T15:34:32.625Z,2.20
2023-05-04T15:37:34.666Z,2.22
2023-05-04T15:40:36.525Z,2.60
2023-05-04T15:43:38.283Z,2.80
2023-05-04T15:46:40.118Z,2.67
2023-05-04T15:49:41.905Z,2.53
2023-05-04T15:52:43.610Z,2.80
2023-05-04T15:55:45.499Z,3.03
2023-05-04T15:58:47.240Z,4.03
2023-05-04T16:01:49.020Z,2.25
2023-05-04T16:04:50.755Z,2.40
2023-05-04T16:07:52.529Z,2.35
2023-05-04T16:10:54.274Z,2.50
2023-05-04T16:13:56.198Z,3.67
2023-05-04T16:17:00.880Z,2.40
2023-05-04T16:20:04.128Z,2.90
2023-05-04T16:23:06.222Z,2.80
2023-05-04T16:26:07.932Z,2.65
2023-05-04T16:29:12.036Z,3.47
2023-05-04T16:32:13.630Z,3.40
2023-05-04T16:35:15.357Z,3.62
2023-05-04T16:38:19.450Z,2.50
2023-05-04T16:41:21.234Z,2.50
2023-05-04T16:44:22.875Z,4.57
2023-05-04T16:47:24.522Z,4.78
2023-05-04T16:50:26.255Z,5.18
2023-05-04T16:53:28.009Z,5.25
2023-05-04T16:56:29.743Z,4.97
2023-05-04T16:59:31.394Z,4.80
2023-05-04T17:02:33.073Z,5.25
2023-05-04T17:05:35.230Z,6.32
2023-05-04T17:08:37.554Z,5.72
2023-05-04T17:11:39.316Z,5.40
2023-05-04T17:14:41.118Z,3.47
2023-05-04T17:17:42.837Z,4.62
2023-05-04T17:20:44.521Z,3.10
2023-05-04T17:23:46.201Z,3.47
2023-05-04T17:26:47.844Z,8.30
2023-05-04T17:29:49.561Z,41.10
2023-05-04T17:32:51.343Z,26.20
2023-05-04T17:35:53.312Z,7.30
2023-05-04T17:38:55.003Z,7.78
2023-05-04T17:41:56.714Z,5.47
2023-05-04T17:44:58.429Z,4.93
2023-05-04T17:48:00.176Z,3.45
2023-05-04T17:51:01.883Z,9.13
2023-05-04T17:54:03.705Z,9.88
2023-05-04T17:57:05.423Z,7.62
2023-05-04T18:00:08.224Z,9.90
2023-05-04T18:03:10.346Z,11.55
2023-05-04T18:06:12.130Z,10.88
2023-05-04T18:09:13.884Z,4.60
2023-05-04T18:12:15.676Z,7.00
2023-05-04T18:15:18.640Z,4.15
2023-05-04T18:18:20.297Z,4.00
2023-05-04T18:21:22.086Z,5.35
2023-05-04T18:24:25.147Z,5.05
2023-05-04T18:27:33.683Z,3.60
2023-05-04T18:30:35.539Z,3.47
2023-05-04T18:33:38.308Z,3.58
2023-05-04T18:36:41.010Z,4.53
2023-05-04T18:39:43.019Z,4.40
2023-05-04T18:42:45.870Z,3.40
2023-05-04T18:45:49.361Z,3.25
2023-05-04T18:48:53.895Z,3.22
2023-05-04T18:51:56.001Z,3.42
2023-05-04T18:55:00.268Z,3.33
2023-05-04T18:58:04.702Z,3.95
2023-05-04T19:01:06.988Z,3.65
2023-05-04T19:04:13.361Z,3.45
2023-05-04T19:07:15.848Z,4.03
2023-05-04T19:10:19.941Z,5.53
2023-05-04T19:13:21.947Z,3.45
2023-05-04T19:16:26.794Z,3.60
2023-05-04T19:19:29.735Z,3.10
2023-05-04T19:22:31.450Z,3.75
2023-05-04T19:25:35.420Z,3.92
2023-05-04T19:28:40.895Z,3.90
2023-05-04T19:31:42.833Z,3.33
2023-05-04T19:34:44.652Z,3.22
2023-05-04T19:37:49.572Z,3.05
2023-05-04T19:40:51.315Z,3.17
2023-05-04T19:43:54.179Z,3.40
2023-05-04T19:46:56.144Z,2.70
2023-05-04T19:49:58.137Z,2.42
2023-05-04T19:52:59.990Z,2.70
2023-05-04T19:56:02.731Z,2.40
2023-05-04T19:59:04.660Z,2.42
2023-05-04T20:02:13.257Z,2.60
2023-05-04T20:05:15.024Z,2.97
2023-05-04T20:08:16.712Z,3.00
2023-05-04T20:11:18.418Z,2.70
2023-05-04T20:14:22.149Z,2.58
2023-05-04T20:17:26.020Z,2.80
2023-05-04T20:20:29.865Z,2.90
2023-05-04T20:23:32.682Z,2.83
2023-05-04T20:26:34.535Z,2.85
2023-05-04T20:29:36.268Z,3.10
2023-05-04T20:32:38.244Z,2.50
2023-05-04T20:35:44.173Z,2.62
2023-05-04T20:38:45.834Z,2.90
2023-05-04T20:41:49.823Z,2.30
2023-05-04T20:44:51.555Z,2.50
2023-05-04T20:47:54.991Z,2.72
2023-05-04T20:51:13.348Z,2.60
2023-05-04T20:54:17.717Z,2.62
2023-05-04T20:57:19.459Z,2.72
2023-05-04T21:00:21.288Z,2.60
2023-05-04T21:03:25.132Z,2.60
2023-05-04T21:06:32.500Z,2.97
2023-05-04T21:09:34.219Z,2.80
2023-05-04T21:12:46.415Z,2.75
2023-05-04T21:15:59.551Z,2.90
2023-05-04T21:19:01.402Z,2.55
2023-05-04T21:22:05.113Z,2.70
2023-05-04T21:25:07.187Z,2.70
2023-05-04T21:28:09.028Z,3.05
2023-05-04T21:31:11.295Z,3.17
2023-05-04T21:34:14.153Z,2.85
2023-05-04T21:37:15.863Z,3.10
2023-05-04T21:40:18.733Z,2.87
2023-05-04T21:43:20.456Z,3.00
2023-05-04T21:46:22.305Z,3.12
2023-05-04T21:49:24.689Z,3.58
2023-05-04T21:52:28.482Z,3.30
2023-05-04T21:55:30.512Z,2.67
2023-05-04T21:58:33.281Z,3.28
2023-05-04T22:01:36.165Z,3.70
2023-05-04T22:04:42.233Z,2.85
2023-05-04T22:07:44.272Z,2.97
2023-05-04T22:10:49.138Z,3.30
2023-05-04T22:13:50.834Z,3.08
2023-05-04T22:16:53.575Z,3.33
2023-05-04T22:19:55.448Z,3.37
2023-05-04T22:22:57.156Z,3.53
2023-05-04T22:25:59.900Z,3.22
2023-05-04T22:29:03.825Z,3.53
2023-05-04T22:32:05.940Z,3.65
2023-05-04T22:35:07.965Z,4.70
2023-05-04T22:38:11.999Z,3.70
2023-05-04T22:41:15.071Z,3.80
2023-05-04T22:44:16.860Z,3.45
2023-05-04T22:47:20.572Z,3.55
2023-05-04T22:50:22.370Z,3.60
2023-05-04T22:53:24.208Z,3.90
2023-05-04T22:56:27.091Z,3.42
2023-05-04T22:59:28.816Z,3.17
2023-05-04T23:02:30.693Z,3.60
2023-05-04T23:05:32.473Z,3.10
2023-05-04T23:08:34.218Z,3.72
2023-05-04T23:11:37.781Z,3.62
2023-05-04T23:14:39.471Z,3.92
2023-05-04T23:17:41.409Z,3.90
2023-05-04T23:20:43.272Z,3.95
2023-05-04T23:23:45.019Z,3.60
2023-05-04T23:26:46.668Z,3.67
2023-05-04T23:29:48.434Z,3.53
2023-05-04T23:32:50.183Z,3.67
2023-05-04T23:35:56.015Z,3.03
2023-05-04T23:38:57.838Z,3.10
2023-05-04T23:42:00.802Z,3.20
2023-05-04T23:45:04.981Z,3.35
2023-05-04T23:48:07.870Z,3.50
2023-05-04T23:51:09.627Z,3.10
2023-05-04T23:54:11.405Z,3.72
2023-05-04T23:57:14.194Z,3.00
